Time;durP1;ratioP1;P1;durP2;ratioP2;P2;SDS_P1;SDS_P2;PMS_P1;PMS_P2;Temp;Humidity;BMP_temperature;BMP_pressure;BME280_temperature;BME280_humidity;BME280_pressure;Samples;Min_cycle;Max_cycle;Signal;HPM_P1;HPM_P2
2024/02/16 00:01:36;;;;;;;15.90;6.00;;;;;;;;;;4902911;29;20427;-89
2024/02/16 00:04:11;;;;;;;20.48;7.72;;;;;;;;;;4889394;29;20067;-92
2024/02/16 00:06:43;;;;;;;17.33;6.95;;;;;;;;;;4906688;29;20052;-89
2024/02/16 00:09:13;;;;;;;16.83;6.57;;;;;;;;;;4887677;29;20053;-90
2024/02/16 00:11:47;;;;;;;14.60;6.13;;;;;;;;;;4888248;29;20072;-89
2024/02/16 00:14:18;;;;;;;14.13;6.53;;;;;;;;;;4888062;29;20060;-88
2024/02/16 00:16:49;;;;;;;18.75;6.40;;;;;;;;;;4888768;29;20053;-91
2024/02/16 00:19:19;;;;;;;18.30;6.20;;;;;;;;;;4886702;29;20057;-91
2024/02/16 00:21:51;;;;;;;12.70;6.03;;;;;;;;;;4904293;29;20499;-90
2024/02/16 00:24:23;;;;;;;15.73;6.47;;;;;;;;;;4889794;29;20048;-90
2024/02/16 00:26:54;;;;;;;16.30;6.47;;;;;;;;;;4903463;29;20055;-91
2024/02/16 00:29:27;;;;;;;15.50;6.30;;;;;;;;;;4903920;29;20067;-93
2024/02/16 00:32:01;;;;;;;20.77;6.93;;;;;;;;;;4903560;29;20049;-90
2024/02/16 00:34:31;;;;;;;16.50;6.03;;;;;;;;;;4903062;29;20049;-90
2024/02/16 00:37:11;;;;;;;17.85;6.45;;;;;;;;;;4900938;29;20061;-87
2024/02/16 00:39:42;;;;;;;15.25;6.10;;;;;;;;;;4895789;29;20073;-89
2024/02/16 00:42:14;;;;;;;17.98;5.95;;;;;;;;;;4882683;29;20048;-88
2024/02/16 00:44:44;;;;;;;20.08;6.25;;;;;;;;;;4914953;29;20056;-88
2024/02/16 00:47:16;;;;;;;15.20;6.53;;;;;;;;;;4908081;29;20057;-91
2024/02/16 00:49:47;;;;;;;19.90;7.30;;;;;;;;;;4895320;29;20496;-90
2024/02/16 00:52:18;;;;;;;16.15;6.95;;;;;;;;;;4888996;29;20530;-89
2024/02/16 00:54:50;;;;;;;14.98;6.57;;;;;;;;;;4905110;29;20059;-90
2024/02/16 00:57:22;;;;;;;16.70;7.00;;;;;;;;;;4889067;29;20055;-92
2024/02/16 00:59:54;;;;;;;19.17;6.78;;;;;;;;;;4887873;29;20056;-89
2024/02/16 01:02:25;;;;;;;15.88;6.60;;;;;;;;;;4905019;29;20411;-91
2024/02/16 01:05:01;;;;;;;18.92;7.43;;;;;;;;;;4904778;29;20064;-91
2024/02/16 01:07:33;;;;;;;16.52;6.63;;;;;;;;;;4922739;29;20055;-91
2024/02/16 01:10:05;;;;;;;;;;;;;;;;;;4904598;29;20051;-92
2024/02/16 01:12:35;;;;;;;12.75;5.70;;;;;;;;;;4903157;29;19923;-91
2024/02/16 01:15:07;;;;;;;13.27;4.32;;;;;;;;;;4903828;29;20403;-90
2024/02/16 01:17:39;;;;;;;7.35;3.92;;;;;;;;;;4887547;29;20063;-89
2024/02/16 01:20:10;;;;;;;7.03;3.95;;;;;;;;;;4904791;29;20063;-88
2024/02/16 01:22:41;;;;;;;8.50;3.78;;;;;;;;;;4905964;29;20052;-89
2024/02/16 01:25:12;;;;;;;9.15;3.80;;;;;;;;;;4901038;29;20071;-91
2024/02/16 01:27:43;;;;;;;10.45;4.13;;;;;;;;;;4902653;29;20055;-90
2024/02/16 01:30:17;;;;;;;6.85;3.42;;;;;;;;;;4900318;29;20056;-91
2024/02/16 01:32:48;;;;;;;10.15;3.60;;;;;;;;;;4900976;29;20052;-88
2024/02/16 01:35:19;;;;;;;8.82;3.85;;;;;;;;;;4885341;29;20072;-89
2024/02/16 01:37:51;;;;;;;10.43;3.67;;;;;;;;;;4900851;29;20104;-90
2024/02/16 01:40:22;;;;;;;12.45;3.75;;;;;;;;;;4901309;29;20048;-88
2024/02/16 01:42:55;;;;;;;6.78;3.72;;;;;;;;;;4900799;29;20115;-88
2024/02/16 01:45:28;;;;;;;10.38;4.55;;;;;;;;;;4900788;29;20045;-89
2024/02/16 01:47:59;;;;;;;9.77;3.88;;;;;;;;;;4885197;29;20056;-89
2024/02/16 01:50:30;;;;;;;7.40;4.32;;;;;;;;;;4899082;29;20052;-88
2024/02/16 01:53:04;;;;;;;10.65;4.07;;;;;;;;;;4900367;29;20055;-89
2024/02/16 01:55:35;;;;;;;8.38;3.75;;;;;;;;;;4884700;29;20052;-88
2024/02/16 01:58:07;;;;;;;10.48;3.90;;;;;;;;;;4883646;29;20052;-88
2024/02/16 02:00:38;;;;;;;9.35;4.00;;;;;;;;;;4883869;29;20060;-89
2024/02/16 02:03:10;;;;;;;7.10;4.05;;;;;;;;;;4899496;29;20052;-90
2024/02/16 02:05:46;;;;;;;9.90;4.18;;;;;;;;;;4899592;29;20072;-90
2024/02/16 02:08:18;;;;;;;10.05;4.20;;;;;;;;;;4884662;29;20400;-89
2024/02/16 02:10:49;;;;;;;8.25;4.25;;;;;;;;;;4898436;29;20053;-88
2024/02/16 02:13:21;;;;;;;12.10;4.05;;;;;;;;;;4897847;29;20130;-88
2024/02/16 02:15:52;;;;;;;5.93;3.40;;;;;;;;;;4882437;29;20052;-89
2024/02/16 02:18:23;;;;;;;7.20;3.30;;;;;;;;;;4898687;29;20049;-88
2024/02/16 02:20:53;;;;;;;8.05;3.75;;;;;;;;;;4897199;29;20056;-90
2024/02/16 02:23:23;;;;;;;9.02;3.88;;;;;;;;;;4896816;29;20045;-89
2024/02/16 02:25:54;;;;;;;10.75;4.28;;;;;;;;;;4881372;29;20064;-89
2024/02/16 02:28:26;;;;;;;12.15;4.70;;;;;;;;;;4880675;29;20053;-88
2024/02/16 02:30:56;;;;;;;12.32;4.25;;;;;;;;;;4895743;29;20064;-88
2024/02/16 02:33:26;;;;;;;11.07;4.22;;;;;;;;;;4896776;29;20056;-88
2024/02/16 02:35:57;;;;;;;12.85;3.92;;;;;;;;;;4896614;29;20064;-88
2024/02/16 02:38:28;;;;;;;8.98;3.67;;;;;;;;;;4897640;29;20052;-88
2024/02/16 02:40:59;;;;;;;8.45;4.20;;;;;;;;;;4897227;29;20045;-88
2024/02/16 02:43:34;;;;;;;8.38;4.13;;;;;;;;;;4880779;29;20053;-89
2024/02/16 02:46:04;;;;;;;7.45;4.10;;;;;;;;;;4896600;29;20053;-88
2024/02/16 02:48:38;;;;;;;8.95;4.13;;;;;;;;;;4895379;29;20056;-88
2024/02/16 02:51:09;;;;;;;8.48;4.35;;;;;;;;;;4896797;29;20404;-88
2024/02/16 02:53:40;;;;;;;8.70;4.38;;;;;;;;;;4896037;29;20047;-88
2024/02/16 02:56:11;;;;;;;11.63;3.92;;;;;;;;;;4881060;29;20056;-88
2024/02/16 02:58:41;;;;;;;9.43;4.57;;;;;;;;;;4881212;29;20397;-88
2024/02/16 03:01:12;;;;;;;10.02;4.50;;;;;;;;;;4895321;29;20056;-90
2024/02/16 03:03:43;;;;;;;7.30;3.45;;;;;;;;;;4881226;29;20052;-89
2024/02/16 03:06:20;;;;;;;8.15;4.05;;;;;;;;;;4880608;29;20060;-88
2024/02/16 03:08:52;;;;;;;12.55;4.28;;;;;;;;;;4897732;29;20044;-91
2024/02/16 03:11:22;;;;;;;7.25;3.63;;;;;;;;;;4896067;29;20060;-91
2024/02/16 03:13:53;;;;;;;12.13;4.65;;;;;;;;;;4881040;29;20060;-91
2024/02/16 03:16:24;;;;;;;14.27;5.32;;;;;;;;;;4895732;29;20063;-91
2024/02/16 03:18:54;;;;;;;12.15;5.07;;;;;;;;;;4896251;29;20510;-89
2024/02/16 03:21:25;;;;;;;25.02;7.75;;;;;;;;;;4895756;29;20052;-90
2024/02/16 03:23:55;;;;;;;25.33;7.90;;;;;;;;;;4898835;29;20052;-89
2024/02/16 03:26:26;;;;;;;35.00;10.43;;;;;;;;;;4898542;29;20423;-89
2024/02/16 03:28:56;;;;;;;38.33;12.18;;;;;;;;;;4883375;29;20048;-90
2024/02/16 03:31:26;;;;;;;30.48;9.77;;;;;;;;;;4898712;29;20056;-89
2024/02/16 03:33:56;;;;;;;32.05;9.85;;;;;;;;;;4887278;29;20063;-90
2024/02/16 03:36:26;;;;;;;32.30;10.20;;;;;;;;;;4903069;29;20063;-90
2024/02/16 03:38:58;;;;;;;30.65;10.05;;;;;;;;;;4904150;29;20052;-90
2024/02/16 03:41:28;;;;;;;29.35;9.18;;;;;;;;;;4904855;29;20052;-89
2024/02/16 03:44:00;;;;;;;30.48;9.80;;;;;;;;;;4887855;29;20063;-90
2024/02/16 03:46:31;;;;;;;28.70;8.88;;;;;;;;;;4889181;29;20522;-89
2024/02/16 03:49:01;;;;;;;25.48;9.07;;;;;;;;;;4885711;29;20056;-90
2024/02/16 03:51:32;;;;;;;29.15;9.70;;;;;;;;;;4903317;29;20052;-88
2024/02/16 03:54:04;;;;;;;24.02;8.95;;;;;;;;;;4885889;29;20052;-88
2024/02/16 03:56:34;;;;;;;27.15;9.60;;;;;;;;;;4899988;29;20060;-89
2024/02/16 03:59:05;;;;;;;32.90;9.02;;;;;;;;;;4900149;29;20056;-89
2024/02/16 04:01:41;;;;;;;25.90;8.80;;;;;;;;;;4885059;29;20056;-89
2024/02/16 04:04:11;;;;;;;;;;;;;;;;;;4900329;29;20060;-89
2024/02/16 04:06:41;;;;;;;23.05;7.60;;;;;;;;;;4904951;29;19923;-88
2024/02/16 04:09:12;;;;;;;24.40;8.07;;;;;;;;;;4910267;29;20068;-88
2024/02/16 04:11:42;;;;;;;24.75;8.40;;;;;;;;;;4888950;29;20060;-88
2024/02/16 04:14:13;;;;;;;26.02;8.35;;;;;;;;;;4885629;29;20052;-89
2024/02/16 04:16:46;;;;;;;23.70;8.02;;;;;;;;;;4899616;29;20511;-89
2024/02/16 04:19:16;;;;;;;22.30;7.65;;;;;;;;;;4899374;29;20053;-89
2024/02/16 04:21:47;;;;;;;22.58;8.02;;;;;;;;;;4900296;29;20059;-88
2024/02/16 04:24:18;;;;;;;17.85;7.07;;;;;;;;;;4883432;29;20057;-89
2024/02/16 04:26:50;;;;;;;20.67;6.70;;;;;;;;;;4900284;29;20381;-89
2024/02/16 04:29:20;;;;;;;19.60;7.25;;;;;;;;;;4883077;29;20115;-89
2024/02/16 04:31:51;;;;;;;18.08;7.30;;;;;;;;;;4899407;29;20057;-89
2024/02/16 04:34:22;;;;;;;17.98;6.65;;;;;;;;;;4900009;29;20064;-89
2024/02/16 04:36:52;;;;;;;17.90;6.55;;;;;;;;;;4884716;29;20059;-89
2024/02/16 04:39:23;;;;;;;15.88;7.15;;;;;;;;;;4899599;29;20411;-88
2024/02/16 04:41:53;;;;;;;15.55;6.10;;;;;;;;;;4900587;29;20376;-89
2024/02/16 04:44:24;;;;;;;17.25;6.40;;;;;;;;;;4899497;29;20045;-88
2024/02/16 04:46:55;;;;;;;14.65;6.13;;;;;;;;;;4884708;29;20060;-89
2024/02/16 04:49:24;;;;;;;14.80;6.00;;;;;;;;;;4884349;29;20504;-89
2024/02/16 04:51:55;;;;;;;18.63;6.38;;;;;;;;;;4899293;29;20044;-88
2024/02/16 04:54:26;;;;;;;16.98;6.13;;;;;;;;;;4900034;29;20048;-88
2024/02/16 04:56:56;;;;;;;13.63;5.32;;;;;;;;;;4883547;29;20080;-89
2024/02/16 04:59:27;;;;;;;11.85;6.00;;;;;;;;;;4899441;29;20511;-89
2024/02/16 05:01:58;;;;;;;15.05;5.80;;;;;;;;;;4900009;29;20052;-89
2024/02/16 05:04:28;;;;;;;14.90;5.50;;;;;;;;;;4883143;29;20080;-89
2024/02/16 05:06:58;;;;;;;11.88;5.50;;;;;;;;;;4899477;29;20060;-89
2024/02/16 05:09:32;;;;;;;11.20;4.93;;;;;;;;;;4883382;29;20415;-89
2024/02/16 05:12:04;;;;;;;14.23;5.65;;;;;;;;;;4883196;29;20052;-89
2024/02/16 05:14:36;;;;;;;11.68;5.22;;;;;;;;;;4884221;29;20511;-89
2024/02/16 05:17:06;;;;;;;14.70;5.45;;;;;;;;;;4899341;29;20068;-89
2024/02/16 05:19:36;;;;;;;12.68;5.03;;;;;;;;;;4899164;29;20407;-89
2024/02/16 05:22:06;;;;;;;13.40;4.80;;;;;;;;;;4899631;29;20054;-89
2024/02/16 05:24:37;;;;;;;11.02;4.53;;;;;;;;;;4899195;29;20064;-89
2024/02/16 05:27:07;;;;;;;12.00;5.10;;;;;;;;;;4899395;29;20057;-89
2024/02/16 05:29:37;;;;;;;11.77;5.40;;;;;;;;;;4898958;29;20051;-90
2024/02/16 05:32:10;;;;;;;12.18;4.93;;;;;;;;;;4898818;29;20059;-89
2024/02/16 05:34:40;;;;;;;11.90;4.43;;;;;;;;;;4899318;29;20108;-89
2024/02/16 05:37:10;;;;;;;9.88;4.60;;;;;;;;;;4883819;29;20053;-89
2024/02/16 05:40:08;;;;;;;13.68;5.20;;;;;;;;;;4898907;29;20488;-89
2024/02/16 05:42:33;;;;;;;11.75;4.65;;;;;;;;;;4897686;29;20411;-88
2024/02/16 05:45:03;;;;;;;14.15;4.80;;;;;;;;;;4897742;29;20484;-87
2024/02/16 05:47:38;;;;;;;11.27;4.65;;;;;;;;;;4883381;29;20048;-88
2024/02/16 05:50:09;;;;;;;9.23;4.65;;;;;;;;;;4898052;29;20052;-88
2024/02/16 05:52:40;;;;;;;12.50;4.50;;;;;;;;;;4882756;29;20061;-89
2024/02/16 05:55:12;;;;;;;13.57;4.93;;;;;;;;;;4900014;29;20060;-87
2024/02/16 05:57:42;;;;;;;12.35;4.68;;;;;;;;;;4899060;29;20476;-88
2024/02/16 06:00:13;;;;;;;12.57;5.07;;;;;;;;;;4899492;29;20067;-88
2024/02/16 06:02:43;;;;;;;11.52;4.57;;;;;;;;;;4898795;29;20049;-88
2024/02/16 06:05:13;;;;;;;11.85;4.82;;;;;;;;;;4899058;29;20056;-87
2024/02/16 06:07:43;;;;;;;12.50;4.25;;;;;;;;;;4898178;29;20404;-88
2024/02/16 06:10:13;;;;;;;10.02;4.32;;;;;;;;;;4882054;29;20226;-88
2024/02/16 06:12:43;;;;;;;7.20;3.10;;;;;;;;;;4897684;29;20076;-88
2024/02/16 06:15:14;;;;;;;7.00;3.15;;;;;;;;;;4897020;29;20192;-88
2024/02/16 06:17:45;;;;;;;7.45;2.58;;;;;;;;;;4897449;29;20496;-87
2024/02/16 06:20:16;;;;;;;3.85;2.13;;;;;;;;;;4896676;29;20052;-88
2024/02/16 06:22:49;;;;;;;10.27;3.13;;;;;;;;;;4882274;29;20053;-88
2024/02/16 06:25:20;;;;;;;6.60;2.30;;;;;;;;;;4897187;29;20049;-88
2024/02/16 06:27:50;;;;;;;8.18;2.08;;;;;;;;;;4881710;29;20104;-88
2024/02/16 06:30:21;;;;;;;5.88;2.10;;;;;;;;;;4896362;29;20053;-87
2024/02/16 06:32:54;;;;;;;3.28;1.80;;;;;;;;;;4897112;29;20401;-88
2024/02/16 06:35:25;;;;;;;5.47;1.67;;;;;;;;;;4896278;29;20060;-87
2024/02/16 06:37:55;;;;;;;3.53;1.35;;;;;;;;;;4896701;29;20056;-87
2024/02/16 06:40:26;;;;;;;2.97;1.10;;;;;;;;;;4895351;29;20056;-87
2024/02/16 06:42:57;;;;;;;5.55;1.50;;;;;;;;;;4896643;29;20065;-88
2024/02/16 06:45:30;;;;;;;7.63;1.38;;;;;;;;;;4897908;29;20057;-88
2024/02/16 06:48:00;;;;;;;6.72;1.55;;;;;;;;;;4880878;29;20053;-88
2024/02/16 06:50:30;;;;;;;4.45;1.40;;;;;;;;;;4897447;29;20052;-87
2024/02/16 06:53:00;;;;;;;5.80;1.20;;;;;;;;;;4896463;29;20468;-87
2024/02/16 06:55:33;;;;;;;3.55;1.80;;;;;;;;;;4898249;29;20049;-86
2024/02/16 06:58:04;;;;;;;6.35;2.00;;;;;;;;;;4895980;29;20068;-87
2024/02/16 07:00:35;;;;;;;4.80;1.48;;;;;;;;;;4896219;29;20071;-87
2024/02/16 07:03:05;;;;;;;5.78;1.30;;;;;;;;;;4896522;29;20376;-88
2024/02/16 07:05:36;;;;;;;3.13;1.63;;;;;;;;;;4880786;29;20483;-87
2024/02/16 07:08:07;;;;;;;4.43;1.23;;;;;;;;;;4896835;29;20044;-88
2024/02/16 07:10:37;;;;;;;4.30;1.35;;;;;;;;;;4897060;29;20056;-88
2024/02/16 07:13:07;;;;;;;6.55;1.30;;;;;;;;;;4897485;29;20391;-87
2024/02/16 07:15:37;;;;;;;4.28;1.35;;;;;;;;;;4896563;29;20052;-88
2024/02/16 07:18:07;;;;;;;4.75;1.25;;;;;;;;;;4896857;29;20048;-88
2024/02/16 07:20:38;;;;;;;2.50;1.05;;;;;;;;;;4880682;29;20053;-88
2024/02/16 07:23:54;;;;;;;3.63;1.05;;;;;;;;;;4896936;29;20044;-88
2024/02/16 07:26:24;;;;;;;3.83;0.80;;;;;;;;;;4846271;29;20061;-88
2024/02/16 07:29:20;;;;;;;4.20;0.80;;;;;;;;;;4865823;29;20061;-88
2024/02/16 07:31:52;;;;;;;2.42;0.98;;;;;;;;;;4862462;29;20073;-88
2024/02/16 07:34:23;;;;;;;1.63;0.93;;;;;;;;;;4860928;29;20060;-88
2024/02/16 07:36:54;;;;;;;6.05;1.15;;;;;;;;;;4846415;29;20053;-88
2024/02/16 07:39:25;;;;;;;4.07;0.85;;;;;;;;;;4861096;29;20059;-88
2024/02/16 07:41:57;;;;;;;3.22;0.93;;;;;;;;;;4860872;29;20053;-88
2024/02/16 07:44:28;;;;;;;7.90;1.00;;;;;;;;;;4860834;29;20060;-88
2024/02/16 07:46:59;;;;;;;4.00;0.80;;;;;;;;;;4862346;29;20057;-87
2024/02/16 07:49:29;;;;;;;1.65;0.90;;;;;;;;;;4861708;29;20516;-87
2024/02/16 07:51:59;;;;;;;3.70;0.90;;;;;;;;;;4877787;29;20461;-88
2024/02/16 07:54:29;;;;;;;2.90;0.90;;;;;;;;;;4861816;29;20057;-88
2024/02/16 07:56:59;;;;;;;4.13;0.93;;;;;;;;;;4847132;29;20061;-88
2024/02/16 07:59:30;;;;;;;3.40;1.38;;;;;;;;;;4861057;29;20056;-88
2024/02/16 08:02:00;;;;;;;2.47;1.10;;;;;;;;;;4861269;29;20061;-88
2024/02/16 08:04:31;;;;;;;5.45;1.15;;;;;;;;;;4861533;29;20397;-89
2024/02/16 08:07:02;;;;;;;3.38;1.20;;;;;;;;;;4862272;29;20053;-89
2024/02/16 08:09:32;;;;;;;3.78;0.90;;;;;;;;;;4870049;29;20060;-89
2024/02/16 08:12:06;;;;;;;7.45;1.02;;;;;;;;;;4897492;29;20049;-88
2024/02/16 08:14:38;;;;;;;3.35;0.93;;;;;;;;;;4903686;29;20419;-88
2024/02/16 08:17:09;;;;;;;;;;;;;;;;;;4907767;29;20056;-88
2024/02/16 08:19:54;;;;;;;5.00;1.05;;;;;;;;;;4888048;29;19931;-89
2024/02/16 08:22:25;;;;;;;3.88;0.80;;;;;;;;;;4901053;29;20496;-88
2024/02/16 08:24:55;;;;;;;2.30;1.00;;;;;;;;;;4899905;29;20053;-89
2024/02/16 08:27:27;;;;;;;4.47;1.08;;;;;;;;;;4899460;29;20048;-89
2024/02/16 08:29:58;;;;;;;4.82;1.00;;;;;;;;;;4884107;29;20480;-89
2024/02/16 08:32:29;;;;;;;4.97;0.90;;;;;;;;;;4899552;29;20523;-89
2024/02/16 08:35:00;;;;;;;4.30;1.45;;;;;;;;;;4900226;29;20063;-89
2024/02/16 08:37:30;;;;;;;1.88;0.70;;;;;;;;;;4900751;29;20515;-89
2024/02/16 08:40:01;;;;;;;2.80;0.68;;;;;;;;;;4898861;29;20056;-88
2024/02/16 08:42:32;;;;;;;5.07;0.88;;;;;;;;;;4899815;29;20103;-89
2024/02/16 08:45:03;;;;;;;2.42;0.90;;;;;;;;;;4899248;29;20381;-89
2024/02/16 08:47:35;;;;;;;3.05;0.98;;;;;;;;;;4899444;29;20400;-89
2024/02/16 08:50:08;;;;;;;1.90;0.80;;;;;;;;;;4899144;29;20067;-88
2024/02/16 08:52:39;;;;;;;4.13;1.00;;;;;;;;;;4884043;29;20053;-88
2024/02/16 08:55:09;;;;;;;2.58;0.90;;;;;;;;;;4882659;29;20056;-89
2024/02/16 08:57:41;;;;;;;2.53;0.65;;;;;;;;;;4883812;29;20048;-88
2024/02/16 09:00:13;;;;;;;5.75;0.70;;;;;;;;;;4900249;29;20052;-89
2024/02/16 09:02:46;;;;;;;2.55;1.35;;;;;;;;;;4883729;29;20055;-88
2024/02/16 09:05:16;;;;;;;1.73;0.85;;;;;;;;;;4899709;29;20056;-88
2024/02/16 09:07:49;;;;;;;3.33;0.93;;;;;;;;;;4899339;29;20419;-88
2024/02/16 09:10:19;;;;;;;2.38;0.60;;;;;;;;;;4899312;29;20052;-89
2024/02/16 09:12:51;;;;;;;4.75;0.63;;;;;;;;;;4898784;29;20142;-89
2024/02/16 09:15:22;;;;;;;1.75;0.40;;;;;;;;;;4883243;29;20060;-88
2024/02/16 09:17:53;;;;;;;2.22;0.45;;;;;;;;;;4883326;29;20065;-89
2024/02/16 09:20:24;;;;;;;0.68;0.40;;;;;;;;;;4897217;29;20492;-87
2024/02/16 09:22:54;;;;;;;2.90;0.73;;;;;;;;;;4892938;29;20463;-88
2024/02/16 09:25:25;;;;;;;0.63;0.40;;;;;;;;;;4878150;29;20052;-87
2024/02/16 09:27:56;;;;;;;1.88;0.60;;;;;;;;;;4899168;29;20052;-88
2024/02/16 09:30:27;;;;;;;2.47;0.50;;;;;;;;;;4884700;29;20064;-87
2024/02/16 09:32:59;;;;;;;5.97;0.52;;;;;;;;;;4897231;29;20048;-88
2024/02/16 09:35:32;;;;;;;1.40;0.55;;;;;;;;;;4908437;29;20048;-88
2024/02/16 09:38:02;;;;;;;2.38;0.70;;;;;;;;;;4881800;29;20056;-88
2024/02/16 09:40:35;;;;;;;4.68;0.57;;;;;;;;;;4896966;29;20068;-88
2024/02/16 09:43:05;;;;;;;2.92;0.60;;;;;;;;;;4881435;29;20049;-88
2024/02/16 09:45:36;;;;;;;1.42;0.50;;;;;;;;;;4881356;29;20084;-88
2024/02/16 09:48:09;;;;;;;2.92;0.50;;;;;;;;;;4897361;29;20416;-88
2024/02/16 09:50:41;;;;;;;4.00;0.80;;;;;;;;;;4896852;29;20415;-87
2024/02/16 09:53:12;;;;;;;2.22;0.60;;;;;;;;;;4881296;29;20060;-87
2024/02/16 09:55:44;;;;;;;2.20;0.60;;;;;;;;;;4896863;29;20072;-88
2024/02/16 09:58:17;;;;;;;2.15;0.50;;;;;;;;;;4896845;29;20059;-88
2024/02/16 10:00:52;;;;;;;3.95;0.52;;;;;;;;;;4897199;29;20555;-88
2024/02/16 10:03:28;;;;;;;1.83;0.43;;;;;;;;;;4881559;29;20055;-87
2024/02/16 10:06:09;;;;;;;3.33;0.52;;;;;;;;;;4882328;29;20504;-88
2024/02/16 10:08:56;;;;;;;2.15;0.50;;;;;;;;;;4897543;29;20064;-88
2024/02/16 10:11:30;;;;;;;2.00;0.73;;;;;;;;;;4896576;29;20449;-88
2024/02/16 10:14:02;;;;;;;2.03;0.90;;;;;;;;;;4882137;29;20056;-88
2024/02/16 10:16:33;;;;;;;;;;;;;;;;;;4898335;29;20511;-87
2024/02/16 10:19:11;;;;;;;0.98;0.50;;;;;;;;;;4896863;29;19923;-87
2024/02/16 10:21:49;;;;;;;1.70;0.40;;;;;;;;;;4895401;29;20531;-88
2024/02/16 10:24:22;;;;;;;0.80;0.45;;;;;;;;;;4895581;29;20060;-88
2024/02/16 10:26:55;;;;;;;0.60;0.30;;;;;;;;;;4896675;29;20056;-87
2024/02/16 10:29:27;;;;;;;1.48;0.45;;;;;;;;;;4897629;29;20053;-87
2024/02/16 10:31:58;;;;;;;2.10;0.68;;;;;;;;;;4882456;29;20056;-87
2024/02/16 10:34:32;;;;;;;3.95;0.93;;;;;;;;;;4882558;29;20060;-87
2024/02/16 10:37:04;;;;;;;6.60;2.70;;;;;;;;;;4897023;29;20059;-88
2024/02/16 10:39:38;;;;;;;7.13;2.33;;;;;;;;;;4887216;29;20055;-88
2024/02/16 10:42:10;;;;;;;3.03;0.60;;;;;;;;;;4913856;29;20431;-86
2024/02/16 10:44:42;;;;;;;1.20;0.80;;;;;;;;;;4904785;29;20056;-86
2024/02/16 10:47:13;;;;;;;5.18;0.77;;;;;;;;;;4898475;29;20048;-87
2024/02/16 10:49:45;;;;;;;1.15;0.50;;;;;;;;;;4885718;29;20052;-89
2024/02/16 10:52:18;;;;;;;0.70;0.50;;;;;;;;;;4904343;29;20059;-87
2024/02/16 10:54:50;;;;;;;3.83;0.90;;;;;;;;;;4916479;29;20056;-88
2024/02/16 10:57:24;;;;;;;3.80;1.25;;;;;;;;;;4917308;29;20052;-87
2024/02/16 10:59:56;;;;;;;2.65;1.15;;;;;;;;;;4902903;29;20507;-88
2024/02/16 11:02:27;;;;;;;6.28;0.80;;;;;;;;;;4910403;29;20056;-90
2024/02/16 11:04:58;;;;;;;1.27;0.50;;;;;;;;;;4896484;29;20237;-87
2024/02/16 11:07:28;;;;;;;3.55;0.50;;;;;;;;;;4899821;29;20384;-89
2024/02/16 11:10:00;;;;;;;1.83;0.43;;;;;;;;;;4898604;29;20534;-87
2024/02/16 11:12:35;;;;;;;1.63;0.40;;;;;;;;;;4909984;29;20059;-87
2024/02/16 11:15:08;;;;;;;1.10;0.60;;;;;;;;;;4898024;29;20044;-87
2024/02/16 11:17:40;;;;;;;1.92;0.63;;;;;;;;;;4899602;29;20060;-90
2024/02/16 11:20:13;;;;;;;0.57;0.30;;;;;;;;;;4914321;29;20048;-90
2024/02/16 11:22:45;;;;;;;1.73;0.35;;;;;;;;;;4916909;29;20074;-89
2024/02/16 11:25:16;;;;;;;2.83;0.43;;;;;;;;;;4915632;29;20056;-89
2024/02/16 11:27:47;;;;;;;1.42;0.43;;;;;;;;;;4904426;29;20052;-89
2024/02/16 11:30:20;;;;;;;1.17;0.73;;;;;;;;;;4897635;29;20059;-89
2024/02/16 11:32:52;;;;;;;0.80;0.50;;;;;;;;;;4903060;29;20044;-88
2024/02/16 11:35:23;;;;;;;4.97;1.60;;;;;;;;;;4913362;29;20040;-90
2024/02/16 11:37:53;;;;;;;8.85;2.47;;;;;;;;;;4911804;29;20052;-89
2024/02/16 11:40:23;;;;;;;3.65;1.40;;;;;;;;;;4914434;29;20063;-90
2024/02/16 11:43:00;;;;;;;1.48;0.75;;;;;;;;;;4886515;29;20068;-88
2024/02/16 11:45:35;;;;;;;1.25;0.50;;;;;;;;;;4900245;29;20044;-89
2024/02/16 11:48:09;;;;;;;0.50;0.32;;;;;;;;;;4912710;29;20051;-88
2024/02/16 11:50:40;;;;;;;2.15;0.60;;;;;;;;;;4895311;29;20048;-88
2024/02/16 11:53:19;;;;;;;1.02;0.30;;;;;;;;;;4905217;29;20063;-89
2024/02/16 11:55:50;;;;;;;2.88;0.60;;;;;;;;;;4900434;29;20056;-88
2024/02/16 11:58:22;;;;;;;1.75;0.40;;;;;;;;;;4900672;29;20056;-88
2024/02/16 12:00:56;;;;;;;2.13;1.00;;;;;;;;;;4894155;29;20062;-89
2024/02/16 12:03:32;;;;;;;2.25;1.00;;;;;;;;;;4899631;29;20504;-88
2024/02/16 12:06:02;;;;;;;0.85;0.60;;;;;;;;;;4893383;29;20064;-89
2024/02/16 12:08:36;;;;;;;0.93;0.50;;;;;;;;;;4896022;29;20055;-89
2024/02/16 12:11:08;;;;;;;1.08;0.63;;;;;;;;;;4903714;29;20048;-89
2024/02/16 12:13:40;;;;;;;3.28;1.20;;;;;;;;;;4911245;29;20411;-88
2024/02/16 12:16:11;;;;;;;3.60;1.73;;;;;;;;;;4906513;29;20055;-89
2024/02/16 12:18:45;;;;;;;4.90;1.48;;;;;;;;;;4890605;29;20052;-88
2024/02/16 12:21:21;;;;;;;4.75;1.20;;;;;;;;;;4900675;29;20061;-88
2024/02/16 12:23:52;;;;;;;1.65;1.00;;;;;;;;;;4902255;29;20056;-88
2024/02/16 12:26:23;;;;;;;1.75;1.20;;;;;;;;;;4912910;29;20056;-88
2024/02/16 12:28:54;;;;;;;2.88;0.75;;;;;;;;;;4913208;29;20048;-89
2024/02/16 12:31:26;;;;;;;1.83;0.90;;;;;;;;;;4909776;29;20045;-88
2024/02/16 12:33:56;;;;;;;4.97;1.83;;;;;;;;;;4903944;29;20052;-88
2024/02/16 12:36:27;;;;;;;6.40;4.28;;;;;;;;;;4907117;29;20052;-90
2024/02/16 12:38:59;;;;;;;1.45;0.93;;;;;;;;;;4882470;29;20048;-91
2024/02/16 12:41:30;;;;;;;1.52;0.80;;;;;;;;;;4889673;29;20071;-88
2024/02/16 12:44:00;;;;;;;1.50;1.10;;;;;;;;;;4901674;29;20067;-88
2024/02/16 12:46:34;;;;;;;2.13;0.90;;;;;;;;;;4907951;29;20053;-87
2024/02/16 12:49:05;;;;;;;0.93;0.70;;;;;;;;;;4902967;29;20396;-87
2024/02/16 12:51:36;;;;;;;2.50;0.90;;;;;;;;;;4886880;29;20048;-89
2024/02/16 12:54:07;;;;;;;4.55;0.63;;;;;;;;;;4899645;29;20160;-90
2024/02/16 12:56:37;;;;;;;1.00;0.50;;;;;;;;;;4910859;29;20044;-88
2024/02/16 12:59:09;;;;;;;3.30;1.02;;;;;;;;;;4907444;29;20059;-89
2024/02/16 13:01:40;;;;;;;3.90;0.90;;;;;;;;;;4906063;29;20048;-90
2024/02/16 13:04:13;;;;;;;2.60;1.00;;;;;;;;;;4916799;29;20059;-89
2024/02/16 13:06:45;;;;;;;2.67;1.00;;;;;;;;;;4897705;29;20048;-89
2024/02/16 13:09:16;;;;;;;3.10;1.63;;;;;;;;;;4900835;29;20052;-91
2024/02/16 13:11:53;;;;;;;2.78;1.20;;;;;;;;;;4889435;29;20055;-91
2024/02/16 13:14:24;;;;;;;4.25;1.30;;;;;;;;;;4893447;29;20053;-89
2024/02/16 13:16:54;;;;;;;1.98;0.93;;;;;;;;;;4910582;29;20503;-87
2024/02/16 13:19:26;;;;;;;1.55;0.60;;;;;;;;;;4916828;29;20395;-87
2024/02/16 13:21:57;;;;;;;0.55;0.30;;;;;;;;;;4898515;29;20048;-87
2024/02/16 13:24:27;;;;;;;0.93;0.40;;;;;;;;;;4897852;29;20052;-87
2024/02/16 13:26:59;;;;;;;1.15;0.43;;;;;;;;;;4888771;29;20063;-89
2024/02/16 13:29:30;;;;;;;1.27;0.60;;;;;;;;;;4905518;29;20060;-88
2024/02/16 13:32:03;;;;;;;2.70;0.32;;;;;;;;;;4904044;29;20048;-88
2024/02/16 13:34:33;;;;;;;0.82;0.30;;;;;;;;;;4915776;29;20052;-90
2024/02/16 13:37:04;;;;;;;2.58;0.30;;;;;;;;;;4917137;29;20044;-88
2024/02/16 13:39:35;;;;;;;2.03;0.40;;;;;;;;;;4912931;29;20060;-87
2024/02/16 13:42:06;;;;;;;2.33;0.40;;;;;;;;;;4919167;29;20051;-91
2024/02/16 13:44:37;;;;;;;1.20;0.43;;;;;;;;;;4917052;29;20052;-88
2024/02/16 13:47:08;;;;;;;1.27;0.40;;;;;;;;;;4878802;29;20512;-91
2024/02/16 13:49:39;;;;;;;0.52;0.35;;;;;;;;;;4897656;29;20106;-88
2024/02/16 13:52:10;;;;;;;0.57;0.45;;;;;;;;;;4902022;29;20057;-87
2024/02/16 13:54:40;;;;;;;0.47;0.38;;;;;;;;;;4899882;29;20066;-89
2024/02/16 13:57:11;;;;;;;0.95;0.50;;;;;;;;;;4897949;29;20052;-91
2024/02/16 13:59:43;;;;;;;0.73;0.30;;;;;;;;;;4884778;29;20075;-91
2024/02/16 14:02:13;;;;;;;;;;;;;;;;;;4912657;29;20048;-88
2024/02/16 14:04:45;;;;;;;0.82;0.30;;;;;;;;;;4914858;29;19923;-88
2024/02/16 14:07:16;;;;;;;3.03;0.30;;;;;;;;;;4897665;29;20063;-89
2024/02/16 14:09:48;;;;;;;1.80;0.47;;;;;;;;;;4905734;29;20047;-90
2024/02/16 14:12:19;;;;;;;3.67;1.20;;;;;;;;;;4914468;29;20063;-88
2024/02/16 14:14:51;;;;;;;1.23;0.45;;;;;;;;;;4915216;29;20451;-88
2024/02/16 14:17:22;;;;;;;1.25;0.70;;;;;;;;;;4904905;29;20044;-88
2024/02/16 14:19:53;;;;;;;1.88;1.10;;;;;;;;;;4907125;29;20067;-87
2024/02/16 14:22:23;;;;;;;2.40;1.52;;;;;;;;;;4896500;29;20052;-90
2024/02/16 14:24:53;;;;;;;4.80;1.92;;;;;;;;;;4899403;29;20056;-87
2024/02/16 14:27:25;;;;;;;3.75;1.65;;;;;;;;;;4903790;29;20044;-89
2024/02/16 14:29:57;;;;;;;1.38;0.60;;;;;;;;;;4919627;29;20048;-87
2024/02/16 14:32:28;;;;;;;2.47;0.60;;;;;;;;;;4903466;29;20052;-87
2024/02/16 14:35:00;;;;;;;2.03;1.40;;;;;;;;;;4900227;29;20051;-88
2024/02/16 14:37:32;;;;;;;;;;;;;;;;;;4917388;29;20044;-89
2024/02/16 14:40:05;;;;;;;2.90;1.63;;;;;;;;;;4899922;29;20309;-89
2024/02/16 14:42:35;;;;;;;3.38;1.98;;;;;;;;;;4898725;29;20415;-88
2024/02/16 14:45:09;;;;;;;3.40;2.20;;;;;;;;;;4916211;29;20048;-89
2024/02/16 14:48:28;;;;;;;3.53;1.85;;;;;;;;;;4899181;29;20387;-88
2024/02/16 14:51:05;;;;;;;3.85;2.22;;;;;;;;;;4897376;29;20060;-88
2024/02/16 14:53:35;;;;;;;6.22;1.80;;;;;;;;;;4892171;29;20045;-88
2024/02/16 14:56:05;;;;;;;3.55;1.75;;;;;;;;;;4891221;29;20052;-88
2024/02/16 14:58:36;;;;;;;2.90;1.48;;;;;;;;;;4913947;29;20060;-87
2024/02/16 15:01:09;;;;;;;2.83;1.83;;;;;;;;;;4913159;29;20063;-88
2024/02/16 15:03:40;;;;;;;3.55;1.67;;;;;;;;;;4876664;29;20053;-88
2024/02/16 15:06:10;;;;;;;3.95;1.90;;;;;;;;;;4881900;29;20499;-91
2024/02/16 15:08:41;;;;;;;3.40;2.13;;;;;;;;;;4904890;29;20040;-90